sensor_id;sensor_type;location;lat;lon;timestamp;pressure;altitude;pressure_sealevel;temperature;humidity
57094;BME280;42970;50.996;3.706;2024-03-06T00:01:56;113162.81;;;-146.65;100.00
57094;BME280;42970;50.996;3.706;2024-03-06T00:04:21;113162.81;;;-146.65;100.00
57094;BME280;42970;50.996;3.706;2024-03-06T00:06:46;113162.81;;;-146.65;100.00
57094;BME280;42970;50.996;3.706;2024-03-06T00:09:12;113162.81;;;-146.65;100.00
57094;BME280;42970;50.996;3.706;2024-03-06T00:11:37;113162.81;;;-146.65;100.00
57094;BME280;42970;50.996;3.706;2024-03-06T00:14:02;113162.81;;;-146.65;100.00
57094;BME280;42970;50.996;3.706;2024-03-06T00:16:27;113162.81;;;-146.65;100.00
57094;BME280;42970;50.996;3.706;2024-03-06T00:18:53;113162.81;;;-146.65;100.00
57094;BME280;42970;50.996;3.706;2024-03-06T00:21:18;113162.81;;;-146.65;100.00
57094;BME280;42970;50.996;3.706;2024-03-06T00:23:43;113162.81;;;-146.65;100.00
57094;BME280;42970;50.996;3.706;2024-03-06T00:26:11;113162.81;;;-146.65;100.00
57094;BME280;42970;50.996;3.706;2024-03-06T00:28:36;113162.81;;;-146.65;100.00
57094;BME280;42970;50.996;3.706;2024-03-06T00:31:01;113162.81;;;-146.65;100.00
57094;BME280;42970;50.996;3.706;2024-03-06T00:33:27;113162.81;;;-146.65;100.00
57094;BME280;42970;50.996;3.706;2024-03-06T00:35:52;113162.81;;;-146.65;100.00
57094;BME280;42970;50.996;3.706;2024-03-06T00:38:17;113162.81;;;-146.65;100.00
57094;BME280;42970;50.996;3.706;2024-03-06T00:40:43;113162.81;;;-146.65;100.00
57094;BME280;42970;50.996;3.706;2024-03-06T00:43:08;113162.81;;;-146.65;100.00
57094;BME280;42970;50.996;3.706;2024-03-06T00:45:33;113162.81;;;-146.65;100.00
57094;BME280;42970;50.996;3.706;2024-03-06T00:47:59;113162.81;;;-146.65;100.00
57094;BME280;42970;50.996;3.706;2024-03-06T00:50:24;113162.81;;;-146.65;100.00
57094;BME280;42970;50.996;3.706;2024-03-06T00:52:49;113162.81;;;-146.65;100.00
57094;BME280;42970;50.996;3.706;2024-03-06T00:55:15;113162.81;;;-146.65;100.00
57094;BME280;42970;50.996;3.706;2024-03-06T00:57:40;113162.81;;;-146.65;100.00
57094;BME280;42970;50.996;3.706;2024-03-06T01:00:05;113162.81;;;-146.65;100.00
57094;BME280;42970;50.996;3.706;2024-03-06T01:02:37;113162.81;;;-146.65;100.00
57094;BME280;42970;50.996;3.706;2024-03-06T01:05:02;113162.81;;;-146.65;100.00
57094;BME280;42970;50.996;3.706;2024-03-06T01:07:29;113162.81;;;-146.65;100.00
57094;BME280;42970;50.996;3.706;2024-03-06T01:09:54;113162.81;;;-146.65;100.00
57094;BME280;42970;50.996;3.706;2024-03-06T01:12:19;113162.81;;;-146.65;100.00
57094;BME280;42970;50.996;3.706;2024-03-06T01:14:44;113162.81;;;-146.65;100.00
57094;BME280;42970;50.996;3.706;2024-03-06T01:17:10;113162.81;;;-146.65;100.00
57094;BME280;42970;50.996;3.706;2024-03-06T01:19:35;113162.81;;;-146.65;100.00
57094;BME280;42970;50.996;3.706;2024-03-06T01:22:00;113162.81;;;-146.65;100.00
57094;BME280;42970;50.996;3.706;2024-03-06T01:24:25;113162.81;;;-146.65;100.00
57094;BME280;42970;50.996;3.706;2024-03-06T01:26:50;113162.81;;;-146.65;100.00
57094;BME280;42970;50.996;3.706;2024-03-06T01:29:16;113162.81;;;-146.65;100.00
57094;BME280;42970;50.996;3.706;2024-03-06T01:31:43;113162.81;;;-146.65;100.00
57094;BME280;42970;50.996;3.706;2024-03-06T01:34:11;113162.81;;;-146.65;100.00
57094;BME280;42970;50.996;3.706;2024-03-06T01:36:36;113162.81;;;-146.65;100.00
57094;BME280;42970;50.996;3.706;2024-03-06T01:39:02;113162.81;;;-146.65;100.00
57094;BME280;42970;50.996;3.706;2024-03-06T01:41:27;113162.81;;;-146.65;100.00
57094;BME280;42970;50.996;3.706;2024-03-06T01:43:53;113162.81;;;-146.65;100.00
57094;BME280;42970;50.996;3.706;2024-03-06T01:46:18;113162.81;;;-146.65;100.00
57094;BME280;42970;50.996;3.706;2024-03-06T01:48:43;113162.81;;;-146.65;100.00
57094;BME280;42970;50.996;3.706;2024-03-06T01:51:09;113162.81;;;-146.65;100.00
57094;BME280;42970;50.996;3.706;2024-03-06T01:53:34;113162.81;;;-146.65;100.00
57094;BME280;42970;50.996;3.706;2024-03-06T01:56:00;113162.81;;;-146.65;100.00
57094;BME280;42970;50.996;3.706;2024-03-06T01:58:25;113162.81;;;-146.65;100.00
57094;BME280;42970;50.996;3.706;2024-03-06T02:00:51;113162.81;;;-146.65;100.00
57094;BME280;42970;50.996;3.706;2024-03-06T02:03:17;113162.81;;;-146.65;100.00
57094;BME280;42970;50.996;3.706;2024-03-06T02:05:42;113162.81;;;-146.65;100.00
57094;BME280;42970;50.996;3.706;2024-03-06T02:08:08;113162.81;;;-146.65;100.00
57094;BME280;42970;50.996;3.706;2024-03-06T02:10:33;113162.81;;;-146.65;100.00
57094;BME280;42970;50.996;3.706;2024-03-06T02:12:59;113162.81;;;-146.65;100.00
57094;BME280;42970;50.996;3.706;2024-03-06T02:15:24;113162.81;;;-146.65;100.00
57094;BME280;42970;50.996;3.706;2024-03-06T02:17:49;113162.81;;;-146.65;100.00
57094;BME280;42970;50.996;3.706;2024-03-06T02:20:16;113162.81;;;-146.65;100.00
57094;BME280;42970;50.996;3.706;2024-03-06T02:22:41;113162.81;;;-146.65;100.00
57094;BME280;42970;50.996;3.706;2024-03-06T02:25:06;113162.81;;;-146.65;100.00
57094;BME280;42970;50.996;3.706;2024-03-06T02:27:32;113162.81;;;-146.65;100.00
57094;BME280;42970;50.996;3.706;2024-03-06T02:29:57;113162.81;;;-146.65;100.00
57094;BME280;42970;50.996;3.706;2024-03-06T02:32:23;113162.81;;;-146.65;100.00
57094;BME280;42970;50.996;3.706;2024-03-06T02:34:49;113162.81;;;-146.65;100.00
57094;BME280;42970;50.996;3.706;2024-03-06T02:37:14;113162.81;;;-146.65;100.00
57094;BME280;42970;50.996;3.706;2024-03-06T02:39:40;113162.81;;;-146.65;100.00
57094;BME280;42970;50.996;3.706;2024-03-06T02:42:06;113162.81;;;-146.65;100.00
57094;BME280;42970;50.996;3.706;2024-03-06T02:44:32;113162.81;;;-146.65;100.00
57094;BME280;42970;50.996;3.706;2024-03-06T02:46:57;113162.81;;;-146.65;100.00
57094;BME280;42970;50.996;3.706;2024-03-06T02:49:22;113162.81;;;-146.65;100.00
57094;BME280;42970;50.996;3.706;2024-03-06T02:51:47;113162.81;;;-146.65;100.00
57094;BME280;42970;50.996;3.706;2024-03-06T02:54:13;113162.81;;;-146.65;100.00
57094;BME280;42970;50.996;3.706;2024-03-06T02:56:38;113162.81;;;-146.65;100.00
57094;BME280;42970;50.996;3.706;2024-03-06T02:59:03;113162.81;;;-146.65;100.00
57094;BME280;42970;50.996;3.706;2024-03-06T03:01:29;113162.81;;;-146.65;100.00
57094;BME280;42970;50.996;3.706;2024-03-06T03:03:55;113162.81;;;-146.65;100.00
57094;BME280;42970;50.996;3.706;2024-03-06T03:06:20;113162.81;;;-146.65;100.00
57094;BME280;42970;50.996;3.706;2024-03-06T03:08:46;113162.81;;;-146.65;100.00
57094;BME280;42970;50.996;3.706;2024-03-06T03:11:12;113162.81;;;-146.65;100.00
57094;BME280;42970;50.996;3.706;2024-03-06T03:13:37;113162.81;;;-146.65;100.00
57094;BME280;42970;50.996;3.706;2024-03-06T03:16:03;113162.81;;;-146.65;100.00
57094;BME280;42970;50.996;3.706;2024-03-06T03:18:29;113162.81;;;-146.65;100.00
57094;BME280;42970;50.996;3.706;2024-03-06T03:20:54;113162.81;;;-146.65;100.00
57094;BME280;42970;50.996;3.706;2024-03-06T03:23:19;113162.81;;;-146.65;100.00
57094;BME280;42970;50.996;3.706;2024-03-06T03:25:47;113162.81;;;-146.65;100.00
57094;BME280;42970;50.996;3.706;2024-03-06T03:28:12;113162.81;;;-146.65;100.00
57094;BME280;42970;50.996;3.706;2024-03-06T03:30:38;113162.81;;;-146.65;100.00
57094;BME280;42970;50.996;3.706;2024-03-06T03:33:03;113162.81;;;-146.65;100.00
57094;BME280;42970;50.996;3.706;2024-03-06T03:35:29;113162.81;;;-146.65;100.00
57094;BME280;42970;50.996;3.706;2024-03-06T03:37:54;113162.81;;;-146.65;100.00
57094;BME280;42970;50.996;3.706;2024-03-06T03:40:20;113162.81;;;-146.65;100.00
57094;BME280;42970;50.996;3.706;2024-03-06T03:42:45;113162.81;;;-146.65;100.00
57094;BME280;42970;50.996;3.706;2024-03-06T03:45:11;113162.81;;;-146.65;100.00
57094;BME280;42970;50.996;3.706;2024-03-06T03:47:36;113162.81;;;-146.65;100.00
57094;BME280;42970;50.996;3.706;2024-03-06T03:50:02;113162.81;;;-146.65;100.00
57094;BME280;42970;50.996;3.706;2024-03-06T03:52:27;113162.81;;;-146.65;100.00
57094;BME280;42970;50.996;3.706;2024-03-06T03:54:53;113162.81;;;-146.65;100.00
57094;BME280;42970;50.996;3.706;2024-03-06T03:57:18;113162.81;;;-146.65;100.00
57094;BME280;42970;50.996;3.706;2024-03-06T03:59:43;113162.81;;;-146.65;100.00
57094;BME280;42970;50.996;3.706;2024-03-06T04:02:08;113162.81;;;-146.65;100.00
57094;BME280;42970;50.996;3.706;2024-03-06T04:04:34;113162.81;;;-146.65;100.00
57094;BME280;42970;50.996;3.706;2024-03-06T04:06:59;113162.81;;;-146.65;100.00
57094;BME280;42970;50.996;3.706;2024-03-06T04:09:27;113162.81;;;-146.65;100.00
57094;BME280;42970;50.996;3.706;2024-03-06T04:11:52;113162.81;;;-146.65;100.00
57094;BME280;42970;50.996;3.706;2024-03-06T04:14:17;113162.81;;;-146.65;100.00
57094;BME280;42970;50.996;3.706;2024-03-06T04:16:45;113162.81;;;-146.65;100.00
57094;BME280;42970;50.996;3.706;2024-03-06T04:19:10;113162.81;;;-146.65;100.00
57094;BME280;42970;50.996;3.706;2024-03-06T04:21:40;113162.81;;;-146.65;100.00
57094;BME280;42970;50.996;3.706;2024-03-06T04:24:05;113162.81;;;-146.65;100.00
57094;BME280;42970;50.996;3.706;2024-03-06T04:26:30;113162.81;;;-146.65;100.00
57094;BME280;42970;50.996;3.706;2024-03-06T04:28:55;113162.81;;;-146.65;100.00
57094;BME280;42970;50.996;3.706;2024-03-06T04:31:21;113162.81;;;-146.65;100.00
57094;BME280;42970;50.996;3.706;2024-03-06T04:33:46;113162.81;;;-146.65;100.00
57094;BME280;42970;50.996;3.706;2024-03-06T04:36:11;113162.81;;;-146.65;100.00
57094;BME280;42970;50.996;3.706;2024-03-06T04:38:37;113162.81;;;-146.65;100.00
57094;BME280;42970;50.996;3.706;2024-03-06T04:41:04;113162.81;;;-146.65;100.00
57094;BME280;42970;50.996;3.706;2024-03-06T04:43:29;113162.81;;;-146.65;100.00
57094;BME280;42970;50.996;3.706;2024-03-06T04:45:55;113162.81;;;-146.65;100.00
57094;BME280;42970;50.996;3.706;2024-03-06T04:48:20;113162.81;;;-146.65;100.00
57094;BME280;42970;50.996;3.706;2024-03-06T04:50:45;113162.81;;;-146.65;100.00
57094;BME280;42970;50.996;3.706;2024-03-06T04:53:11;113162.81;;;-146.65;100.00
57094;BME280;42970;50.996;3.706;2024-03-06T04:55:36;113162.81;;;-146.65;100.00
57094;BME280;42970;50.996;3.706;2024-03-06T04:58:02;113162.81;;;-146.65;100.00
57094;BME280;42970;50.996;3.706;2024-03-06T05:00:28;113162.81;;;-146.65;100.00
57094;BME280;42970;50.996;3.706;2024-03-06T05:02:54;113162.81;;;-146.65;100.00
57094;BME280;42970;50.996;3.706;2024-03-06T05:05:20;113162.81;;;-146.65;100.00
57094;BME280;42970;50.996;3.706;2024-03-06T05:07:46;113162.81;;;-146.65;100.00
57094;BME280;42970;50.996;3.706;2024-03-06T05:10:11;113162.81;;;-146.65;100.00
57094;BME280;42970;50.996;3.706;2024-03-06T05:12:37;113162.81;;;-146.65;100.00
57094;BME280;42970;50.996;3.706;2024-03-06T05:15:02;113162.81;;;-146.65;100.00
57094;BME280;42970;50.996;3.706;2024-03-06T05:17:28;113162.81;;;-146.65;100.00
57094;BME280;42970;50.996;3.706;2024-03-06T05:19:53;113162.81;;;-146.65;100.00
57094;BME280;42970;50.996;3.706;2024-03-06T05:22:19;113162.81;;;-146.65;100.00
57094;BME280;42970;50.996;3.706;2024-03-06T05:24:45;113162.81;;;-146.65;100.00
57094;BME280;42970;50.996;3.706;2024-03-06T05:27:10;113162.81;;;-146.65;100.00
57094;BME280;42970;50.996;3.706;2024-03-06T05:29:38;113162.81;;;-146.65;100.00
57094;BME280;42970;50.996;3.706;2024-03-06T05:32:03;113162.81;;;-146.65;100.00
57094;BME280;42970;50.996;3.706;2024-03-06T05:34:29;113162.81;;;-146.65;100.00
57094;BME280;42970;50.996;3.706;2024-03-06T05:36:57;113162.81;;;-146.65;100.00
57094;BME280;42970;50.996;3.706;2024-03-06T05:39:22;113162.81;;;-146.65;100.00
57094;BME280;42970;50.996;3.706;2024-03-06T05:41:48;113162.81;;;-146.65;100.00
57094;BME280;42970;50.996;3.706;2024-03-06T05:44:13;113162.81;;;-146.65;100.00
57094;BME280;42970;50.996;3.706;2024-03-06T05:46:38;113162.81;;;-146.65;100.00
57094;BME280;42970;50.996;3.706;2024-03-06T05:49:03;113162.81;;;-146.65;100.00
57094;BME280;42970;50.996;3.706;2024-03-06T05:51:29;113162.81;;;-146.65;100.00
57094;BME280;42970;50.996;3.706;2024-03-06T05:53:55;113162.81;;;-146.65;100.00
57094;BME280;42970;50.996;3.706;2024-03-06T05:56:20;113162.81;;;-146.65;100.00
57094;BME280;42970;50.996;3.706;2024-03-06T05:58:45;113162.81;;;-146.65;100.00
57094;BME280;42970;50.996;3.706;2024-03-06T06:01:12;113162.81;;;-146.65;100.00
57094;BME280;42970;50.996;3.706;2024-03-06T06:03:38;113162.81;;;-146.65;100.00
57094;BME280;42970;50.996;3.706;2024-03-06T06:06:04;113162.81;;;-146.65;100.00
57094;BME280;42970;50.996;3.706;2024-03-06T06:08:29;113162.81;;;-146.65;100.00
57094;BME280;42970;50.996;3.706;2024-03-06T06:10:55;113162.81;;;-146.65;100.00
57094;BME280;42970;50.996;3.706;2024-03-06T06:13:20;113162.81;;;-146.65;100.00
57094;BME280;42970;50.996;3.706;2024-03-06T06:15:46;113162.81;;;-146.65;100.00
57094;BME280;42970;50.996;3.706;2024-03-06T06:18:11;113162.81;;;-146.65;100.00
57094;BME280;42970;50.996;3.706;2024-03-06T06:20:37;113162.81;;;-146.65;100.00
57094;BME280;42970;50.996;3.706;2024-03-06T06:23:02;113162.81;;;-146.65;100.00
57094;BME280;42970;50.996;3.706;2024-03-06T06:25:27;113162.81;;;-146.65;100.00
57094;BME280;42970;50.996;3.706;2024-03-06T06:27:52;113162.81;;;-146.65;100.00
57094;BME280;42970;50.996;3.706;2024-03-06T06:30:17;113162.81;;;-146.65;100.00
57094;BME280;42970;50.996;3.706;2024-03-06T06:32:43;113162.81;;;-146.65;100.00
57094;BME280;42970;50.996;3.706;2024-03-06T06:35:08;113162.81;;;-146.65;100.00
57094;BME280;42970;50.996;3.706;2024-03-06T06:37:34;113162.81;;;-146.65;100.00
57094;BME280;42970;50.996;3.706;2024-03-06T06:39:59;113162.81;;;-146.65;100.00
57094;BME280;42970;50.996;3.706;2024-03-06T06:42:25;113162.81;;;-146.65;100.00
57094;BME280;42970;50.996;3.706;2024-03-06T06:44:50;113162.81;;;-146.65;100.00
57094;BME280;42970;50.996;3.706;2024-03-06T06:47:16;113162.81;;;-146.65;100.00
57094;BME280;42970;50.996;3.706;2024-03-06T06:49:41;113162.81;;;-146.65;100.00
57094;BME280;42970;50.996;3.706;2024-03-06T06:52:06;113162.81;;;-146.65;100.00
57094;BME280;42970;50.996;3.706;2024-03-06T06:54:32;113162.81;;;-146.65;100.00
57094;BME280;42970;50.996;3.706;2024-03-06T06:56:57;113162.81;;;-146.65;100.00
57094;BME280;42970;50.996;3.706;2024-03-06T06:59:23;113162.81;;;-146.65;100.00
57094;BME280;42970;50.996;3.706;2024-03-06T07:01:48;113162.81;;;-146.65;100.00
57094;BME280;42970;50.996;3.706;2024-03-06T07:04:13;113162.81;;;-146.65;100.00
57094;BME280;42970;50.996;3.706;2024-03-06T07:06:41;113162.81;;;-146.65;100.00
57094;BME280;42970;50.996;3.706;2024-03-06T07:09:06;113162.81;;;-146.65;100.00
57094;BME280;42970;50.996;3.706;2024-03-06T07:11:34;113162.81;;;-146.65;100.00
57094;BME280;42970;50.996;3.706;2024-03-06T07:13:59;113162.81;;;-146.65;100.00
57094;BME280;42970;50.996;3.706;2024-03-06T07:16:24;113162.81;;;-146.65;100.00
57094;BME280;42970;50.996;3.706;2024-03-06T07:18:50;113162.81;;;-146.65;100.00
57094;BME280;42970;50.996;3.706;2024-03-06T07:21:15;113162.81;;;-146.65;100.00
57094;BME280;42970;50.996;3.706;2024-03-06T07:23:40;113162.81;;;-146.65;100.00
57094;BME280;42970;50.996;3.706;2024-03-06T07:26:05;113162.81;;;-146.65;100.00
57094;BME280;42970;50.996;3.706;2024-03-06T07:28:30;113162.81;;;-146.65;100.00
57094;BME280;42970;50.996;3.706;2024-03-06T07:30:56;113162.81;;;-146.65;100.00
57094;BME280;42970;50.996;3.706;2024-03-06T07:33:21;113162.81;;;-146.65;100.00
57094;BME280;42970;50.996;3.706;2024-03-06T07:35:46;113162.81;;;-146.65;100.00
57094;BME280;42970;50.996;3.706;2024-03-06T07:38:11;113162.81;;;-146.65;100.00
57094;BME280;42970;50.996;3.706;2024-03-06T07:40:37;113162.81;;;-146.65;100.00
57094;BME280;42970;50.996;3.706;2024-03-06T07:43:02;113162.81;;;-146.65;100.00
57094;BME280;42970;50.996;3.706;2024-03-06T07:45:29;113162.81;;;-146.65;100.00
57094;BME280;42970;50.996;3.706;2024-03-06T07:47:54;113162.81;;;-146.65;100.00
57094;BME280;42970;50.996;3.706;2024-03-06T07:50:19;113162.81;;;-146.65;100.00
57094;BME280;42970;50.996;3.706;2024-03-06T07:52:45;113162.81;;;-146.65;100.00
57094;BME280;42970;50.996;3.706;2024-03-06T07:55:11;113162.81;;;-146.65;100.00
57094;BME280;42970;50.996;3.706;2024-03-06T07:57:36;113162.81;;;-146.65;100.00
57094;BME280;42970;50.996;3.706;2024-03-06T08:00:02;113162.81;;;-146.65;100.00
57094;BME280;42970;50.996;3.706;2024-03-06T08:02:33;113162.81;;;-146.65;100.00
57094;BME280;42970;50.996;3.706;2024-03-06T08:05:00;113162.81;;;-146.65;100.00
57094;BME280;42970;50.996;3.706;2024-03-06T08:07:25;113162.81;;;-146.65;100.00
57094;BME280;42970;50.996;3.706;2024-03-06T08:09:50;113162.81;;;-146.65;100.00
57094;BME280;42970;50.996;3.706;2024-03-06T08:12:15;113162.81;;;-146.65;100.00
57094;BME280;42970;50.996;3.706;2024-03-06T08:14:41;113162.81;;;-146.65;100.00
57094;BME280;42970;50.996;3.706;2024-03-06T08:17:06;113162.81;;;-146.65;100.00
57094;BME280;42970;50.996;3.706;2024-03-06T08:19:31;113162.81;;;-146.65;100.00
57094;BME280;42970;50.996;3.706;2024-03-06T08:21:57;113162.81;;;-146.65;100.00
57094;BME280;42970;50.996;3.706;2024-03-06T08:24:22;113162.81;;;-146.65;100.00
57094;BME280;42970;50.996;3.706;2024-03-06T08:26:47;113162.81;;;-146.65;100.00
57094;BME280;42970;50.996;3.706;2024-03-06T08:29:13;113162.81;;;-146.65;100.00
57094;BME280;42970;50.996;3.706;2024-03-06T08:31:38;113162.81;;;-146.65;100.00
57094;BME280;42970;50.996;3.706;2024-03-06T08:34:03;113162.81;;;-146.65;100.00
57094;BME280;42970;50.996;3.706;2024-03-06T08:36:29;113162.81;;;-146.65;100.00
57094;BME280;42970;50.996;3.706;2024-03-06T08:38:54;113162.81;;;-146.65;100.00
57094;BME280;42970;50.996;3.706;2024-03-06T08:41:19;113162.81;;;-146.65;100.00
57094;BME280;42970;50.996;3.706;2024-03-06T08:43:45;113162.81;;;-146.65;100.00
57094;BME280;42970;50.996;3.706;2024-03-06T08:46:10;113162.81;;;-146.65;100.00
57094;BME280;42970;50.996;3.706;2024-03-06T08:48:36;113162.81;;;-146.65;100.00
57094;BME280;42970;50.996;3.706;2024-03-06T08:51:01;113162.81;;;-146.65;100.00
57094;BME280;42970;50.996;3.706;2024-03-06T08:53:28;113162.81;;;-146.65;100.00
57094;BME280;42970;50.996;3.706;2024-03-06T08:55:53;113162.81;;;-146.65;100.00
57094;BME280;42970;50.996;3.706;2024-03-06T08:58:18;113162.81;;;-146.65;100.00
57094;BME280;42970;50.996;3.706;2024-03-06T09:00:45;113162.81;;;-146.65;100.00
57094;BME280;42970;50.996;3.706;2024-03-06T09:03:10;113162.81;;;-146.65;100.00
57094;BME280;42970;50.996;3.706;2024-03-06T09:05:36;113162.81;;;-146.65;100.00
57094;BME280;42970;50.996;3.706;2024-03-06T09:08:01;113162.81;;;-146.65;100.00
57094;BME280;42970;50.996;3.706;2024-03-06T09:10:26;113162.81;;;-146.65;100.00
57094;BME280;42970;50.996;3.706;2024-03-06T09:12:51;113162.81;;;-146.65;100.00
57094;BME280;42970;50.996;3.706;2024-03-06T09:15:17;113162.81;;;-146.65;100.00
57094;BME280;42970;50.996;3.706;2024-03-06T09:17:43;113162.81;;;-146.65;100.00
57094;BME280;42970;50.996;3.706;2024-03-06T09:20:10;113162.81;;;-146.65;100.00
57094;BME280;42970;50.996;3.706;2024-03-06T09:22:36;113162.81;;;-146.65;100.00
57094;BME280;42970;50.996;3.706;2024-03-06T09:25:01;113162.81;;;-146.65;100.00
57094;BME280;42970;50.996;3.706;2024-03-06T09:27:26;113162.81;;;-146.65;100.00
57094;BME280;42970;50.996;3.706;2024-03-06T09:29:52;113162.81;;;-146.65;100.00
57094;BME280;42970;50.996;3.706;2024-03-06T09:32:17;113162.81;;;-146.65;100.00
57094;BME280;42970;50.996;3.706;2024-03-06T09:34:44;113162.81;;;-146.65;100.00
57094;BME280;42970;50.996;3.706;2024-03-06T09:37:09;113162.81;;;-146.65;100.00
57094;BME280;42970;50.996;3.706;2024-03-06T09:39:35;113162.81;;;-146.65;100.00
57094;BME280;42970;50.996;3.706;2024-03-06T09:42:00;113162.81;;;-146.65;100.00
57094;BME280;42970;50.996;3.706;2024-03-06T09:44:26;113162.81;;;-146.65;100.00
57094;BME280;42970;50.996;3.706;2024-03-06T09:46:51;113162.81;;;-146.65;100.00
57094;BME280;42970;50.996;3.706;2024-03-06T09:49:18;113162.81;;;-146.65;100.00
57094;BME280;42970;50.996;3.706;2024-03-06T09:51:44;113162.81;;;-146.65;100.00
57094;BME280;42970;50.996;3.706;2024-03-06T09:54:15;113162.81;;;-146.65;100.00
57094;BME280;42970;50.996;3.706;2024-03-06T09:56:43;113162.81;;;-146.65;96.67
57094;BME280;42970;50.996;3.706;2024-03-06T09:59:10;113162.81;;;-146.65;91.36
57094;BME280;42970;50.996;3.706;2024-03-06T10:01:37;113162.81;;;-146.65;84.44
57094;BME280;42970;50.996;3.706;2024-03-06T10:04:21;113162.81;;;-146.65;85.24
57094;BME280;42970;50.996;3.706;2024-03-06T10:06:47;113162.81;;;-146.65;78.25
57094;BME280;42970;50.996;3.706;2024-03-06T10:09:16;113162.81;;;-146.65;82.83
57094;BME280;42970;50.996;3.706;2024-03-06T10:11:42;113162.81;;;-146.65;81.94
57094;BME280;42970;50.996;3.706;2024-03-06T10:14:07;113162.81;;;-146.65;79.27
57094;BME280;42970;50.996;3.706;2024-03-06T10:16:33;113162.81;;;-146.65;73.57
57094;BME280;42970;50.996;3.706;2024-03-06T10:19:34;113162.81;;;-146.65;71.83
57094;BME280;42970;50.996;3.706;2024-03-06T10:21:56;113162.81;;;-146.65;68.13
57094;BME280;42970;50.996;3.706;2024-03-06T10:26:49;113162.81;;;-146.65;68.91
57094;BME280;42970;50.996;3.706;2024-03-06T10:29:18;113162.81;;;-146.65;68.38
57094;BME280;42970;50.996;3.706;2024-03-06T10:31:53;113162.81;;;-146.65;63.47
57094;BME280;42970;50.996;3.706;2024-03-06T10:34:20;113162.81;;;-146.65;66.19
57094;BME280;42970;50.996;3.706;2024-03-06T10:36:46;113162.81;;;-146.65;67.46
57094;BME280;42970;50.996;3.706;2024-03-06T10:39:14;113162.81;;;-146.65;68.77
57094;BME280;42970;50.996;3.706;2024-03-06T10:41:42;113162.81;;;-146.65;72.06
57094;BME280;42970;50.996;3.706;2024-03-06T10:44:11;113162.81;;;-146.65;69.54
57094;BME280;42970;50.996;3.706;2024-03-06T10:46:39;113162.81;;;-146.65;73.07
57094;BME280;42970;50.996;3.706;2024-03-06T10:49:04;113162.81;;;-146.65;78.65
57094;BME280;42970;50.996;3.706;2024-03-06T10:51:30;113162.81;;;-146.65;80.54
57094;BME280;42970;50.996;3.706;2024-03-06T10:53:57;113162.81;;;-146.65;82.73
57094;BME280;42970;50.996;3.706;2024-03-06T10:56:23;113162.81;;;-146.65;83.95
57094;BME280;42970;50.996;3.706;2024-03-06T10:58:49;113162.81;;;-146.65;82.42
57094;BME280;42970;50.996;3.706;2024-03-06T11:01:16;113162.81;;;-146.65;79.19
57094;BME280;42970;50.996;3.706;2024-03-06T11:03:42;113162.81;;;-146.65;76.18
57094;BME280;42970;50.996;3.706;2024-03-06T11:06:07;113162.81;;;-146.65;74.83
57094;BME280;42970;50.996;3.706;2024-03-06T11:08:33;113162.81;;;-146.65;76.29
57094;BME280;42970;50.996;3.706;2024-03-06T11:11:18;113162.81;;;-146.65;78.71
57094;BME280;42970;50.996;3.706;2024-03-06T11:13:43;113162.81;;;-146.65;83.17
57094;BME280;42970;50.996;3.706;2024-03-06T11:16:08;113162.81;;;-146.65;80.38
57094;BME280;42970;50.996;3.706;2024-03-06T11:23:24;113162.81;;;-146.65;58.02
57094;BME280;42970;50.996;3.706;2024-03-06T11:30:47;113162.81;;;-146.65;64.35
57094;BME280;42970;50.996;3.706;2024-03-06T11:33:14;113162.81;;;-146.65;66.33
57094;BME280;42970;50.996;3.706;2024-03-06T11:35:41;113162.81;;;-146.65;61.68
57094;BME280;42970;50.996;3.706;2024-03-06T11:38:09;113162.81;;;-146.65;66.38
57094;BME280;42970;50.996;3.706;2024-03-06T11:40:42;113162.81;;;-146.65;66.48
57094;BME280;42970;50.996;3.706;2024-03-06T11:43:26;113162.81;;;-146.65;70.75
57094;BME280;42970;50.996;3.706;2024-03-06T11:45:52;113162.81;;;-146.65;72.46
57094;BME280;42970;50.996;3.706;2024-03-06T11:48:17;113162.81;;;-146.65;72.13
57094;BME280;42970;50.996;3.706;2024-03-06T11:50:47;113162.81;;;-146.65;73.35
57094;BME280;42970;50.996;3.706;2024-03-06T11:53:16;113162.81;;;-146.65;74.48
57094;BME280;42970;50.996;3.706;2024-03-06T11:55:42;113162.81;;;-146.65;72.92
57094;BME280;42970;50.996;3.706;2024-03-06T11:58:08;113162.81;;;-146.65;71.18
57094;BME280;42970;50.996;3.706;2024-03-06T12:00:35;113162.81;;;-146.65;72.67
57094;BME280;42970;50.996;3.706;2024-03-06T12:03:01;113162.81;;;-146.65;67.51
57094;BME280;42970;50.996;3.706;2024-03-06T12:05:27;113162.81;;;-146.65;64.23
57094;BME280;42970;50.996;3.706;2024-03-06T12:07:53;113162.81;;;-146.65;62.80
57094;BME280;42970;50.996;3.706;2024-03-06T12:10:19;113162.81;;;-146.65;64.01
57094;BME280;42970;50.996;3.706;2024-03-06T12:12:44;113162.81;;;-146.65;70.66
57094;BME280;42970;50.996;3.706;2024-03-06T12:15:10;113162.81;;;-146.65;69.77
57094;BME280;42970;50.996;3.706;2024-03-06T12:17:47;113162.81;;;-146.65;70.37
57094;BME280;42970;50.996;3.706;2024-03-06T12:20:13;113162.81;;;-146.65;70.90
57094;BME280;42970;50.996;3.706;2024-03-06T12:22:50;113162.81;;;-146.65;70.15
57094;BME280;42970;50.996;3.706;2024-03-06T12:25:22;113162.81;;;-146.65;68.25
57094;BME280;42970;50.996;3.706;2024-03-06T12:27:48;113162.81;;;-146.65;61.74
57094;BME280;42970;50.996;3.706;2024-03-06T12:30:17;113162.81;;;-146.65;58.02